This is the latest recevied weather packets stored in our database for station/object IZ6SAC-13. If no packets are shown the sender has not sent any weather packets the latest 1 day(s).
| Time | Temp. | Humidity | Pressure | Rain* | Wind** | Luminosity | Snow |
|---|---|---|---|---|---|---|---|
| 1778076922 | 22.22° C | 51% | 1010.9 hPa | 0 mm | - | - | - |
| 1778075127 | 21.67° C | 51% | 1011.2 hPa | 0 mm | - | - | - |
| 1778071533 | 22.22° C | 49% | 1011.5 hPa | 0 mm | - | - | - |
| 1778058924 | 21.67° C | 52% | 1012.1 hPa | 0 mm | - | - | - |
| 1778055333 | 20° C | 51% | 1011.9 hPa | 0 mm | - | - | - |
| 1778051723 | 17.22° C | 60% | 1011.9 hPa | 0 mm | - | - | - |
| 1778049928 | 16.67° C | 66% | 1012.4 hPa | 0 mm | - | - | - |
| 1778046317 | 16.67° C | 62% | 1012.1 hPa | 0 mm | - | - | - |
| 1778042727 | 16.67° C | 66% | 1012.1 hPa | 0 mm | - | - | - |
| 1778040931 | 16.67° C | 68% | 1012.1 hPa | 0 mm | - | - | - |
| 1778039133 | 16.11° C | 72% | 1012.2 hPa | 0 mm | - | - | - |
| 1778035522 | 15.56° C | 77% | 1012 hPa | 0 mm | - | - | - |
| 1778033726 | 15.56° C | 77% | 1012.3 hPa | 0 mm | - | - | - |
| 1778030136 | 14.44° C | 81% | 1012.8 hPa | 0 mm | - | - | - |
| 1778028318 | 15° C | 79% | 1012.9 hPa | 0 mm | - | - | - |
| 1778026523 | 15.56° C | 75% | 1013.2 hPa | 0 mm | - | - | - |
| 1778024728 | 16.11° C | 73% | 1013.4 hPa | 0 mm | - | - | - |
| 1778019324 | 16.67° C | 73% | 1014.5 hPa | 0 mm | - | - | - |
| 1778015733 | 16.67° C | 74% | 1014.3 hPa | 0 mm | - | - | - |
| 1778012124 | 16.67° C | 71% | 1014.5 hPa | 0 mm | - | - | - |
| 1778010329 | 17.22° C | 74% | 1014.5 hPa | 0 mm | - | - | - |
| 1778004921 | 17.78° C | 70% | 1013.7 hPa | 0 mm | - | - | - |
| 1777999547 | 20.56° C | 60% | 1013.6 hPa | 0 mm | - | - | - |
| 1777995922 | 18.89° C | 67% | 1014 hPa | 0 mm | - | - | - |
* Rain latest hour (hover to see other rain measurements)
** Current wind speed in m/s (hover to see current wind gust speed)